sensor_id;sensor_type;location;lat;lon;timestamp;temperature;humidity
21039;DHT22;10678;51.002;4.786;2023-08-17T00:00:34;21.80;99.90
21039;DHT22;10678;51.002;4.786;2023-08-17T00:03:00;21.90;99.90
21039;DHT22;10678;51.002;4.786;2023-08-17T00:05:27;21.90;99.90
21039;DHT22;10678;51.002;4.786;2023-08-17T00:07:52;22.00;99.90
21039;DHT22;10678;51.002;4.786;2023-08-17T00:10:18;22.00;99.90
21039;DHT22;10678;51.002;4.786;2023-08-17T00:12:44;22.00;99.90
21039;DHT22;10678;51.002;4.786;2023-08-17T00:15:10;21.90;99.90
21039;DHT22;10678;51.002;4.786;2023-08-17T00:17:35;21.90;99.90
21039;DHT22;10678;51.002;4.786;2023-08-17T00:20:01;21.90;99.90
21039;DHT22;10678;51.002;4.786;2023-08-17T00:22:30;21.80;99.90
21039;DHT22;10678;51.002;4.786;2023-08-17T00:24:56;21.80;99.90
21039;DHT22;10678;51.002;4.786;2023-08-17T00:27:21;21.80;99.90
21039;DHT22;10678;51.002;4.786;2023-08-17T00:29:47;21.80;99.90
21039;DHT22;10678;51.002;4.786;2023-08-17T00:32:13;21.80;99.90
21039;DHT22;10678;51.002;4.786;2023-08-17T00:34:38;21.80;99.90
21039;DHT22;10678;51.002;4.786;2023-08-17T00:37:04;21.80;99.90
21039;DHT22;10678;51.002;4.786;2023-08-17T00:39:29;21.70;99.90
21039;DHT22;10678;51.002;4.786;2023-08-17T00:41:55;21.60;99.90
21039;DHT22;10678;51.002;4.786;2023-08-17T00:44:21;21.70;99.90
21039;DHT22;10678;51.002;4.786;2023-08-17T00:46:46;21.60;99.90
21039;DHT22;10678;51.002;4.786;2023-08-17T00:49:12;21.60;99.90
21039;DHT22;10678;51.002;4.786;2023-08-17T00:51:38;21.60;99.90
21039;DHT22;10678;51.002;4.786;2023-08-17T00:54:05;21.60;99.90
21039;DHT22;10678;51.002;4.786;2023-08-17T00:56:30;21.60;99.90
21039;DHT22;10678;51.002;4.786;2023-08-17T00:58:56;21.60;99.90
21039;DHT22;10678;51.002;4.786;2023-08-17T01:01:22;21.60;99.90
21039;DHT22;10678;51.002;4.786;2023-08-17T01:03:48;21.70;99.90
21039;DHT22;10678;51.002;4.786;2023-08-17T01:06:14;21.70;99.90
21039;DHT22;10678;51.002;4.786;2023-08-17T01:08:41;21.60;99.90
21039;DHT22;10678;51.002;4.786;2023-08-17T01:11:37;21.60;99.90
21039;DHT22;10678;51.002;4.786;2023-08-17T01:14:32;21.70;99.90
21039;DHT22;10678;51.002;4.786;2023-08-17T01:17:15;21.70;99.90
21039;DHT22;10678;51.002;4.786;2023-08-17T01:19:43;21.70;99.90
21039;DHT22;10678;51.002;4.786;2023-08-17T01:22:11;21.60;99.90
21039;DHT22;10678;51.002;4.786;2023-08-17T01:24:39;21.60;99.90
21039;DHT22;10678;51.002;4.786;2023-08-17T01:27:05;21.60;99.90
21039;DHT22;10678;51.002;4.786;2023-08-17T01:29:30;21.50;99.90
21039;DHT22;10678;51.002;4.786;2023-08-17T01:34:42;21.50;99.90
21039;DHT22;10678;51.002;4.786;2023-08-17T01:37:10;21.50;99.90
21039;DHT22;10678;51.002;4.786;2023-08-17T01:39:43;21.60;99.90
21039;DHT22;10678;51.002;4.786;2023-08-17T01:42:10;21.60;99.90
21039;DHT22;10678;51.002;4.786;2023-08-17T01:44:38;21.60;99.90
21039;DHT22;10678;51.002;4.786;2023-08-17T01:47:04;21.70;99.90
21039;DHT22;10678;51.002;4.786;2023-08-17T01:49:30;21.70;99.90
21039;DHT22;10678;51.002;4.786;2023-08-17T01:51:56;21.70;99.90
21039;DHT22;10678;51.002;4.786;2023-08-17T01:54:22;21.70;99.90
21039;DHT22;10678;51.002;4.786;2023-08-17T01:56:47;21.80;99.90
21039;DHT22;10678;51.002;4.786;2023-08-17T01:59:13;21.80;99.90
21039;DHT22;10678;51.002;4.786;2023-08-17T02:01:39;21.70;99.90
21039;DHT22;10678;51.002;4.786;2023-08-17T02:04:04;21.50;99.90
21039;DHT22;10678;51.002;4.786;2023-08-17T02:06:30;21.60;99.90
21039;DHT22;10678;51.002;4.786;2023-08-17T02:08:56;21.60;99.90
21039;DHT22;10678;51.002;4.786;2023-08-17T02:11:22;21.50;99.90
21039;DHT22;10678;51.002;4.786;2023-08-17T02:13:48;21.50;99.90
21039;DHT22;10678;51.002;4.786;2023-08-17T02:16:14;21.50;99.90
21039;DHT22;10678;51.002;4.786;2023-08-17T02:18:39;21.40;99.90
21039;DHT22;10678;51.002;4.786;2023-08-17T02:21:05;21.40;99.90
21039;DHT22;10678;51.002;4.786;2023-08-17T02:23:30;21.50;99.90
21039;DHT22;10678;51.002;4.786;2023-08-17T02:25:56;21.40;99.90
21039;DHT22;10678;51.002;4.786;2023-08-17T02:28:21;21.40;99.90
21039;DHT22;10678;51.002;4.786;2023-08-17T02:30:47;21.40;99.90
21039;DHT22;10678;51.002;4.786;2023-08-17T02:33:14;21.30;99.90
21039;DHT22;10678;51.002;4.786;2023-08-17T02:35:39;21.20;99.90
21039;DHT22;10678;51.002;4.786;2023-08-17T02:38:05;21.30;99.90
21039;DHT22;10678;51.002;4.786;2023-08-17T02:40:31;21.30;99.90
21039;DHT22;10678;51.002;4.786;2023-08-17T02:42:56;21.10;99.90
21039;DHT22;10678;51.002;4.786;2023-08-17T02:45:22;21.00;99.90
21039;DHT22;10678;51.002;4.786;2023-08-17T02:47:47;21.00;99.90
21039;DHT22;10678;51.002;4.786;2023-08-17T02:50:13;20.90;99.90
21039;DHT22;10678;51.002;4.786;2023-08-17T02:52:39;20.90;99.90
21039;DHT22;10678;51.002;4.786;2023-08-17T02:55:05;20.90;99.90
21039;DHT22;10678;51.002;4.786;2023-08-17T02:57:30;20.80;99.90
21039;DHT22;10678;51.002;4.786;2023-08-17T02:59:56;20.80;99.90
21039;DHT22;10678;51.002;4.786;2023-08-17T03:02:22;20.80;99.90
21039;DHT22;10678;51.002;4.786;2023-08-17T03:04:47;20.70;99.90
21039;DHT22;10678;51.002;4.786;2023-08-17T03:07:13;20.70;99.90
21039;DHT22;10678;51.002;4.786;2023-08-17T03:09:39;20.70;99.90
21039;DHT22;10678;51.002;4.786;2023-08-17T03:12:05;20.60;99.90
21039;DHT22;10678;51.002;4.786;2023-08-17T03:14:30;20.60;99.90
21039;DHT22;10678;51.002;4.786;2023-08-17T03:16:56;20.60;99.90
21039;DHT22;10678;51.002;4.786;2023-08-17T03:19:21;20.60;99.90
21039;DHT22;10678;51.002;4.786;2023-08-17T03:21:47;20.50;99.90
21039;DHT22;10678;51.002;4.786;2023-08-17T03:24:12;20.50;99.90
21039;DHT22;10678;51.002;4.786;2023-08-17T03:26:38;20.60;99.90
21039;DHT22;10678;51.002;4.786;2023-08-17T03:29:04;20.70;99.90
21039;DHT22;10678;51.002;4.786;2023-08-17T03:31:29;20.70;99.90
21039;DHT22;10678;51.002;4.786;2023-08-17T03:33:55;20.70;99.90
21039;DHT22;10678;51.002;4.786;2023-08-17T03:36:21;20.80;99.90
21039;DHT22;10678;51.002;4.786;2023-08-17T03:38:46;20.80;99.90
21039;DHT22;10678;51.002;4.786;2023-08-17T03:41:12;20.80;99.90
21039;DHT22;10678;51.002;4.786;2023-08-17T03:43:38;20.80;99.90
21039;DHT22;10678;51.002;4.786;2023-08-17T03:46:04;20.80;99.90
21039;DHT22;10678;51.002;4.786;2023-08-17T03:48:30;20.80;99.90
21039;DHT22;10678;51.002;4.786;2023-08-17T03:50:56;20.80;99.90
21039;DHT22;10678;51.002;4.786;2023-08-17T03:53:21;20.70;99.90
21039;DHT22;10678;51.002;4.786;2023-08-17T03:55:48;20.70;99.90
21039;DHT22;10678;51.002;4.786;2023-08-17T03:58:14;20.70;99.90
21039;DHT22;10678;51.002;4.786;2023-08-17T04:00:39;20.70;99.90
21039;DHT22;10678;51.002;4.786;2023-08-17T04:03:06;20.60;99.90
21039;DHT22;10678;51.002;4.786;2023-08-17T04:05:32;20.70;99.90
21039;DHT22;10678;51.002;4.786;2023-08-17T04:08:00;20.60;99.90
21039;DHT22;10678;51.002;4.786;2023-08-17T04:10:30;20.70;99.90
21039;DHT22;10678;51.002;4.786;2023-08-17T04:12:59;20.80;99.90
21039;DHT22;10678;51.002;4.786;2023-08-17T04:15:24;20.70;99.90
21039;DHT22;10678;51.002;4.786;2023-08-17T04:17:50;20.60;99.90
21039;DHT22;10678;51.002;4.786;2023-08-17T04:20:16;20.70;99.90
21039;DHT22;10678;51.002;4.786;2023-08-17T04:22:43;20.70;99.90
21039;DHT22;10678;51.002;4.786;2023-08-17T04:25:09;20.80;99.90
21039;DHT22;10678;51.002;4.786;2023-08-17T04:27:35;20.70;99.90
21039;DHT22;10678;51.002;4.786;2023-08-17T04:30:01;20.70;99.90
21039;DHT22;10678;51.002;4.786;2023-08-17T04:32:27;20.70;99.90
21039;DHT22;10678;51.002;4.786;2023-08-17T04:34:52;20.60;99.90
21039;DHT22;10678;51.002;4.786;2023-08-17T04:37:18;20.60;99.90
21039;DHT22;10678;51.002;4.786;2023-08-17T04:39:43;20.60;99.90
21039;DHT22;10678;51.002;4.786;2023-08-17T04:42:10;20.70;99.90
21039;DHT22;10678;51.002;4.786;2023-08-17T04:44:35;20.70;99.90
21039;DHT22;10678;51.002;4.786;2023-08-17T04:47:01;20.70;99.90
21039;DHT22;10678;51.002;4.786;2023-08-17T04:49:27;20.60;99.90
21039;DHT22;10678;51.002;4.786;2023-08-17T04:51:53;20.70;99.90
21039;DHT22;10678;51.002;4.786;2023-08-17T04:54:19;20.70;99.90
21039;DHT22;10678;51.002;4.786;2023-08-17T04:56:45;20.70;99.90
21039;DHT22;10678;51.002;4.786;2023-08-17T04:59:10;20.80;99.90
21039;DHT22;10678;51.002;4.786;2023-08-17T05:01:36;20.80;99.90
21039;DHT22;10678;51.002;4.786;2023-08-17T05:04:03;20.70;99.90
21039;DHT22;10678;51.002;4.786;2023-08-17T05:06:29;20.60;99.90
21039;DHT22;10678;51.002;4.786;2023-08-17T05:08:55;20.60;99.90
21039;DHT22;10678;51.002;4.786;2023-08-17T05:11:20;20.70;99.90
21039;DHT22;10678;51.002;4.786;2023-08-17T05:13:46;20.80;99.90
21039;DHT22;10678;51.002;4.786;2023-08-17T05:16:12;20.70;99.90
21039;DHT22;10678;51.002;4.786;2023-08-17T05:18:37;20.60;99.90
21039;DHT22;10678;51.002;4.786;2023-08-17T05:21:03;20.60;99.90
21039;DHT22;10678;51.002;4.786;2023-08-17T05:23:29;20.60;99.90
21039;DHT22;10678;51.002;4.786;2023-08-17T05:25:54;20.60;99.90
21039;DHT22;10678;51.002;4.786;2023-08-17T05:28:20;20.70;99.90
21039;DHT22;10678;51.002;4.786;2023-08-17T05:30:46;20.70;99.90
21039;DHT22;10678;51.002;4.786;2023-08-17T05:33:12;20.70;99.90
21039;DHT22;10678;51.002;4.786;2023-08-17T05:35:37;20.70;99.90
21039;DHT22;10678;51.002;4.786;2023-08-17T05:38:03;20.80;99.90
21039;DHT22;10678;51.002;4.786;2023-08-17T05:40:30;20.80;99.90
21039;DHT22;10678;51.002;4.786;2023-08-17T05:42:56;20.80;99.90
21039;DHT22;10678;51.002;4.786;2023-08-17T05:45:22;20.90;99.90
21039;DHT22;10678;51.002;4.786;2023-08-17T05:47:47;20.80;99.90
21039;DHT22;10678;51.002;4.786;2023-08-17T05:50:13;20.90;99.90
21039;DHT22;10678;51.002;4.786;2023-08-17T05:52:40;20.90;99.90
21039;DHT22;10678;51.002;4.786;2023-08-17T05:55:06;20.90;99.90
21039;DHT22;10678;51.002;4.786;2023-08-17T05:57:31;20.80;99.90
21039;DHT22;10678;51.002;4.786;2023-08-17T05:59:57;20.80;99.90
21039;DHT22;10678;51.002;4.786;2023-08-17T06:02:22;20.80;99.90
21039;DHT22;10678;51.002;4.786;2023-08-17T06:04:48;20.70;99.90
21039;DHT22;10678;51.002;4.786;2023-08-17T06:07:14;20.70;99.90
21039;DHT22;10678;51.002;4.786;2023-08-17T06:09:40;20.80;99.90
21039;DHT22;10678;51.002;4.786;2023-08-17T06:12:05;20.90;99.90
21039;DHT22;10678;51.002;4.786;2023-08-17T06:14:32;20.80;99.90
21039;DHT22;10678;51.002;4.786;2023-08-17T06:16:58;20.70;99.90
21039;DHT22;10678;51.002;4.786;2023-08-17T06:19:24;20.70;99.90
21039;DHT22;10678;51.002;4.786;2023-08-17T06:21:50;20.60;99.90
21039;DHT22;10678;51.002;4.786;2023-08-17T06:24:15;20.60;99.90
21039;DHT22;10678;51.002;4.786;2023-08-17T06:26:41;20.60;99.90
21039;DHT22;10678;51.002;4.786;2023-08-17T06:29:07;20.60;99.90
21039;DHT22;10678;51.002;4.786;2023-08-17T06:31:33;20.70;99.90
21039;DHT22;10678;51.002;4.786;2023-08-17T06:33:59;20.80;99.90
21039;DHT22;10678;51.002;4.786;2023-08-17T06:36:24;20.70;99.90
21039;DHT22;10678;51.002;4.786;2023-08-17T06:38:50;20.70;99.90
21039;DHT22;10678;51.002;4.786;2023-08-17T06:41:16;20.80;99.90
21039;DHT22;10678;51.002;4.786;2023-08-17T06:43:42;20.70;99.90
21039;DHT22;10678;51.002;4.786;2023-08-17T06:46:08;20.70;99.90
21039;DHT22;10678;51.002;4.786;2023-08-17T06:48:33;20.80;99.90
21039;DHT22;10678;51.002;4.786;2023-08-17T06:50:59;20.90;99.90
21039;DHT22;10678;51.002;4.786;2023-08-17T06:53:24;20.80;99.90
21039;DHT22;10678;51.002;4.786;2023-08-17T06:55:50;20.90;99.90
21039;DHT22;10678;51.002;4.786;2023-08-17T06:58:16;20.90;99.90
21039;DHT22;10678;51.002;4.786;2023-08-17T07:00:41;21.00;99.90
21039;DHT22;10678;51.002;4.786;2023-08-17T07:03:09;20.90;99.90
21039;DHT22;10678;51.002;4.786;2023-08-17T07:05:34;20.90;99.90
21039;DHT22;10678;51.002;4.786;2023-08-17T07:08:00;20.80;99.90
21039;DHT22;10678;51.002;4.786;2023-08-17T07:10:27;20.90;99.90
21039;DHT22;10678;51.002;4.786;2023-08-17T07:12:52;20.90;99.90
21039;DHT22;10678;51.002;4.786;2023-08-17T07:15:18;20.90;99.90
21039;DHT22;10678;51.002;4.786;2023-08-17T07:17:44;20.80;99.90
21039;DHT22;10678;51.002;4.786;2023-08-17T07:20:10;20.90;99.90
21039;DHT22;10678;51.002;4.786;2023-08-17T07:22:37;21.00;99.90
21039;DHT22;10678;51.002;4.786;2023-08-17T07:25:02;20.90;99.90
21039;DHT22;10678;51.002;4.786;2023-08-17T07:27:29;20.90;99.90
21039;DHT22;10678;51.002;4.786;2023-08-17T07:29:55;20.80;99.90
21039;DHT22;10678;51.002;4.786;2023-08-17T07:32:21;20.90;99.90
21039;DHT22;10678;51.002;4.786;2023-08-17T07:34:47;21.00;99.90
21039;DHT22;10678;51.002;4.786;2023-08-17T07:37:13;21.00;99.90
21039;DHT22;10678;51.002;4.786;2023-08-17T07:39:38;21.10;99.90
21039;DHT22;10678;51.002;4.786;2023-08-17T07:42:04;21.10;99.90
21039;DHT22;10678;51.002;4.786;2023-08-17T07:44:30;21.10;99.90
21039;DHT22;10678;51.002;4.786;2023-08-17T07:46:57;21.10;99.90
21039;DHT22;10678;51.002;4.786;2023-08-17T07:49:24;21.10;99.90
21039;DHT22;10678;51.002;4.786;2023-08-17T07:51:50;21.20;99.90
21039;DHT22;10678;51.002;4.786;2023-08-17T07:54:16;21.30;99.90
21039;DHT22;10678;51.002;4.786;2023-08-17T07:56:41;21.30;99.90
21039;DHT22;10678;51.002;4.786;2023-08-17T07:59:07;21.40;99.90
21039;DHT22;10678;51.002;4.786;2023-08-17T08:01:33;21.50;99.90
21039;DHT22;10678;51.002;4.786;2023-08-17T08:03:58;21.50;99.90
21039;DHT22;10678;51.002;4.786;2023-08-17T08:06:24;21.40;99.90
21039;DHT22;10678;51.002;4.786;2023-08-17T08:08:49;21.30;99.90
21039;DHT22;10678;51.002;4.786;2023-08-17T08:11:15;21.40;99.90
21039;DHT22;10678;51.002;4.786;2023-08-17T08:13:41;21.50;99.90
21039;DHT22;10678;51.002;4.786;2023-08-17T08:16:06;21.60;99.90
21039;DHT22;10678;51.002;4.786;2023-08-17T08:18:33;21.60;99.90
21039;DHT22;10678;51.002;4.786;2023-08-17T08:20:59;21.60;99.90
21039;DHT22;10678;51.002;4.786;2023-08-17T08:23:25;21.50;99.90
21039;DHT22;10678;51.002;4.786;2023-08-17T08:25:51;21.70;99.90
21039;DHT22;10678;51.002;4.786;2023-08-17T08:28:17;21.70;99.90
21039;DHT22;10678;51.002;4.786;2023-08-17T08:30:42;21.80;99.90
21039;DHT22;10678;51.002;4.786;2023-08-17T08:33:08;21.90;99.90
21039;DHT22;10678;51.002;4.786;2023-08-17T08:35:34;22.00;99.90
21039;DHT22;10678;51.002;4.786;2023-08-17T08:37:59;22.10;99.90
21039;DHT22;10678;51.002;4.786;2023-08-17T08:40:29;22.10;99.90
21039;DHT22;10678;51.002;4.786;2023-08-17T08:42:56;22.20;99.90
21039;DHT22;10678;51.002;4.786;2023-08-17T08:45:22;22.40;99.90
21039;DHT22;10678;51.002;4.786;2023-08-17T08:47:49;22.60;99.90
21039;DHT22;10678;51.002;4.786;2023-08-17T08:50:20;22.70;99.90
21039;DHT22;10678;51.002;4.786;2023-08-17T08:52:59;22.70;99.90
21039;DHT22;10678;51.002;4.786;2023-08-17T08:55:29;22.60;99.90
21039;DHT22;10678;51.002;4.786;2023-08-17T08:57:56;22.40;99.90
21039;DHT22;10678;51.002;4.786;2023-08-17T09:00:22;22.50;99.90
21039;DHT22;10678;51.002;4.786;2023-08-17T09:02:50;22.50;99.90
21039;DHT22;10678;51.002;4.786;2023-08-17T09:05:17;22.50;99.90
21039;DHT22;10678;51.002;4.786;2023-08-17T09:07:43;22.50;99.90
21039;DHT22;10678;51.002;4.786;2023-08-17T09:10:10;22.50;99.90
21039;DHT22;10678;51.002;4.786;2023-08-17T09:12:35;22.50;99.90
21039;DHT22;10678;51.002;4.786;2023-08-17T09:15:02;22.50;99.90
21039;DHT22;10678;51.002;4.786;2023-08-17T09:17:28;22.60;99.90
21039;DHT22;10678;51.002;4.786;2023-08-17T09:19:54;22.60;99.90
21039;DHT22;10678;51.002;4.786;2023-08-17T09:22:38;22.60;99.90
21039;DHT22;10678;51.002;4.786;2023-08-17T09:25:05;22.70;99.90
21039;DHT22;10678;51.002;4.786;2023-08-17T09:27:34;22.80;99.90
21039;DHT22;10678;51.002;4.786;2023-08-17T09:30:05;22.70;99.90
21039;DHT22;10678;51.002;4.786;2023-08-17T09:32:32;22.80;99.90
21039;DHT22;10678;51.002;4.786;2023-08-17T09:35:07;22.80;99.90
21039;DHT22;10678;51.002;4.786;2023-08-17T09:37:33;22.90;99.90
21039;DHT22;10678;51.002;4.786;2023-08-17T09:39:59;22.80;99.90
21039;DHT22;10678;51.002;4.786;2023-08-17T09:42:25;22.90;99.90
21039;DHT22;10678;51.002;4.786;2023-08-17T09:44:53;23.00;99.90
21039;DHT22;10678;51.002;4.786;2023-08-17T09:47:19;22.90;99.90
21039;DHT22;10678;51.002;4.786;2023-08-17T09:49:53;22.90;99.90
21039;DHT22;10678;51.002;4.786;2023-08-17T09:52:19;22.90;99.90
21039;DHT22;10678;51.002;4.786;2023-08-17T09:54:46;23.00;99.90
21039;DHT22;10678;51.002;4.786;2023-08-17T09:57:13;23.10;99.90
21039;DHT22;10678;51.002;4.786;2023-08-17T09:59:39;23.10;99.90
21039;DHT22;10678;51.002;4.786;2023-08-17T10:02:17;23.20;99.90
21039;DHT22;10678;51.002;4.786;2023-08-17T10:04:48;23.30;99.90
21039;DHT22;10678;51.002;4.786;2023-08-17T10:07:15;23.30;99.90
21039;DHT22;10678;51.002;4.786;2023-08-17T10:09:43;23.20;99.90
21039;DHT22;10678;51.002;4.786;2023-08-17T10:12:15;23.10;99.90
21039;DHT22;10678;51.002;4.786;2023-08-17T10:14:55;23.00;99.90
21039;DHT22;10678;51.002;4.786;2023-08-17T10:17:26;23.00;99.90
21039;DHT22;10678;51.002;4.786;2023-08-17T10:19:56;23.10;99.90
21039;DHT22;10678;51.002;4.786;2023-08-17T10:24:58;23.40;99.90
21039;DHT22;10678;51.002;4.786;2023-08-17T10:27:25;23.40;99.90
21039;DHT22;10678;51.002;4.786;2023-08-17T10:29:52;23.30;99.90
21039;DHT22;10678;51.002;4.786;2023-08-17T10:32:20;23.30;99.90
21039;DHT22;10678;51.002;4.786;2023-08-17T10:34:47;23.20;99.90
21039;DHT22;10678;51.002;4.786;2023-08-17T10:37:14;23.20;99.90
21039;DHT22;10678;51.002;4.786;2023-08-17T10:39:45;23.20;99.90
21039;DHT22;10678;51.002;4.786;2023-08-17T10:42:12;23.30;99.90
21039;DHT22;10678;51.002;4.786;2023-08-17T10:47:23;23.30;99.90
21039;DHT22;10678;51.002;4.786;2023-08-17T10:50:02;23.30;99.90
21039;DHT22;10678;51.002;4.786;2023-08-17T10:52:34;23.40;99.90
21039;DHT22;10678;51.002;4.786;2023-08-17T10:55:07;23.40;99.90
21039;DHT22;10678;51.002;4.786;2023-08-17T10:57:36;23.30;99.90
21039;DHT22;10678;51.002;4.786;2023-08-17T11:03:03;23.40;99.90
21039;DHT22;10678;51.002;4.786;2023-08-17T11:08:00;23.40;99.90
21039;DHT22;10678;51.002;4.786;2023-08-17T11:12:53;23.70;99.90
21039;DHT22;10678;51.002;4.786;2023-08-17T11:15:25;23.70;99.90
21039;DHT22;10678;51.002;4.786;2023-08-17T11:17:52;23.50;99.90
21039;DHT22;10678;51.002;4.786;2023-08-17T11:20:18;23.50;99.90
21039;DHT22;10678;51.002;4.786;2023-08-17T11:22:45;23.60;99.90
21039;DHT22;10678;51.002;4.786;2023-08-17T11:25:11;23.70;99.90
21039;DHT22;10678;51.002;4.786;2023-08-17T11:27:37;23.80;99.90
21039;DHT22;10678;51.002;4.786;2023-08-17T11:30:03;23.80;99.90
21039;DHT22;10678;51.002;4.786;2023-08-17T11:32:29;23.70;99.90
21039;DHT22;10678;51.002;4.786;2023-08-17T11:34:55;23.70;99.90
21039;DHT22;10678;51.002;4.786;2023-08-17T11:37:21;23.90;99.90
21039;DHT22;10678;51.002;4.786;2023-08-17T11:39:47;23.60;99.90
21039;DHT22;10678;51.002;4.786;2023-08-17T11:42:13;23.80;99.90
21039;DHT22;10678;51.002;4.786;2023-08-17T11:44:38;23.80;99.90
21039;DHT22;10678;51.002;4.786;2023-08-17T11:47:05;23.90;99.90
21039;DHT22;10678;51.002;4.786;2023-08-17T11:49:32;24.20;99.90
21039;DHT22;10678;51.002;4.786;2023-08-17T11:51:57;24.10;99.90
21039;DHT22;10678;51.002;4.786;2023-08-17T11:54:23;24.10;99.90
21039;DHT22;10678;51.002;4.786;2023-08-17T11:56:48;24.00;99.90
21039;DHT22;10678;51.002;4.786;2023-08-17T11:59:14;23.70;99.90
21039;DHT22;10678;51.002;4.786;2023-08-17T12:01:44;23.60;99.90
21039;DHT22;10678;51.002;4.786;2023-08-17T12:04:10;23.70;99.90
21039;DHT22;10678;51.002;4.786;2023-08-17T12:06:43;23.70;99.90
21039;DHT22;10678;51.002;4.786;2023-08-17T12:09:09;23.80;99.90
21039;DHT22;10678;51.002;4.786;2023-08-17T12:11:34;23.80;99.90
21039;DHT22;10678;51.002;4.786;2023-08-17T12:14:09;23.80;99.90
21039;DHT22;10678;51.002;4.786;2023-08-17T12:16:48;23.80;99.90
21039;DHT22;10678;51.002;4.786;2023-08-17T12:19:16;23.70;99.90
21039;DHT22;10678;51.002;4.786;2023-08-17T12:21:42;23.60;99.90
21039;DHT22;10678;51.002;4.786;2023-08-17T12:24:11;23.70;99.90
21039;DHT22;10678;51.002;4.786;2023-08-17T12:26:46;23.90;99.90
21039;DHT22;10678;51.002;4.786;2023-08-17T12:29:12;24.00;99.90
21039;DHT22;10678;51.002;4.786;2023-08-17T12:31:38;24.00;99.90
21039;DHT22;10678;51.002;4.786;2023-08-17T12:34:04;23.90;99.90
21039;DHT22;10678;51.002;4.786;2023-08-17T12:36:34;23.90;99.90
21039;DHT22;10678;51.002;4.786;2023-08-17T12:39:04;23.80;99.90
21039;DHT22;10678;51.002;4.786;2023-08-17T12:41:30;23.70;99.90
21039;DHT22;10678;51.002;4.786;2023-08-17T12:43:55;23.90;99.90
21039;DHT22;10678;51.002;4.786;2023-08-17T12:46:24;24.00;99.90
21039;DHT22;10678;51.002;4.786;2023-08-17T12:48:50;24.00;99.90
21039;DHT22;10678;51.002;4.786;2023-08-17T12:51:16;24.00;99.90
21039;DHT22;10678;51.002;4.786;2023-08-17T12:53:41;24.00;99.90
21039;DHT22;10678;51.002;4.786;2023-08-17T12:56:08;24.00;99.90
21039;DHT22;10678;51.002;4.786;2023-08-17T12:58:34;23.80;99.90
21039;DHT22;10678;51.002;4.786;2023-08-17T13:00:59;23.70;99.90
21039;DHT22;10678;51.002;4.786;2023-08-17T13:03:25;23.80;99.90
21039;DHT22;10678;51.002;4.786;2023-08-17T13:05:50;23.80;99.90
21039;DHT22;10678;51.002;4.786;2023-08-17T13:08:16;23.90;99.90
21039;DHT22;10678;51.002;4.786;2023-08-17T13:10:42;23.90;99.90
21039;DHT22;10678;51.002;4.786;2023-08-17T13:13:07;23.80;99.90
21039;DHT22;10678;51.002;4.786;2023-08-17T13:15:33;24.00;99.90
21039;DHT22;10678;51.002;4.786;2023-08-17T13:17:59;23.90;99.90
21039;DHT22;10678;51.002;4.786;2023-08-17T13:20:25;23.80;99.90
21039;DHT22;10678;51.002;4.786;2023-08-17T13:22:51;23.80;99.90
21039;DHT22;10678;51.002;4.786;2023-08-17T13:25:17;23.90;99.90
21039;DHT22;10678;51.002;4.786;2023-08-17T13:27:42;24.00;99.90
21039;DHT22;10678;51.002;4.786;2023-08-17T13:30:08;23.90;99.90
21039;DHT22;10678;51.002;4.786;2023-08-17T13:32:34;23.90;99.90
21039;DHT22;10678;51.002;4.786;2023-08-17T13:35:02;23.90;99.90
21039;DHT22;10678;51.002;4.786;2023-08-17T13:37:27;23.80;99.90
21039;DHT22;10678;51.002;4.786;2023-08-17T13:39:53;23.90;99.90
21039;DHT22;10678;51.002;4.786;2023-08-17T13:42:19;24.00;99.90
21039;DHT22;10678;51.002;4.786;2023-08-17T13:44:45;24.10;99.90
21039;DHT22;10678;51.002;4.786;2023-08-17T13:47:11;24.20;99.90
21039;DHT22;10678;51.002;4.786;2023-08-17T13:49:37;24.20;99.90
21039;DHT22;10678;51.002;4.786;2023-08-17T13:52:03;24.50;99.90
21039;DHT22;10678;51.002;4.786;2023-08-17T13:54:29;24.50;99.90
21039;DHT22;10678;51.002;4.786;2023-08-17T13:56:55;24.80;99.90
21039;DHT22;10678;51.002;4.786;2023-08-17T13:59:20;24.90;99.90
21039;DHT22;10678;51.002;4.786;2023-08-17T14:01:46;24.90;99.90
21039;DHT22;10678;51.002;4.786;2023-08-17T14:04:12;25.00;99.90
21039;DHT22;10678;51.002;4.786;2023-08-17T14:06:38;25.00;99.90
21039;DHT22;10678;51.002;4.786;2023-08-17T14:09:04;25.20;99.90
21039;DHT22;10678;51.002;4.786;2023-08-17T14:11:30;25.10;99.90
21039;DHT22;10678;51.002;4.786;2023-08-17T14:13:56;25.10;99.90
21039;DHT22;10678;51.002;4.786;2023-08-17T14:16:21;24.90;99.90
21039;DHT22;10678;51.002;4.786;2023-08-17T14:18:47;25.10;99.90
21039;DHT22;10678;51.002;4.786;2023-08-17T14:21:13;24.90;99.90
21039;DHT22;10678;51.002;4.786;2023-08-17T14:23:39;25.00;99.90
21039;DHT22;10678;51.002;4.786;2023-08-17T14:26:05;25.10;99.90
21039;DHT22;10678;51.002;4.786;2023-08-17T14:28:31;24.90;99.90
21039;DHT22;10678;51.002;4.786;2023-08-17T14:30:57;24.80;99.90
21039;DHT22;10678;51.002;4.786;2023-08-17T14:33:23;24.80;99.90
21039;DHT22;10678;51.002;4.786;2023-08-17T14:35:49;24.70;99.90
21039;DHT22;10678;51.002;4.786;2023-08-17T14:38:15;24.80;99.90
21039;DHT22;10678;51.002;4.786;2023-08-17T14:40:44;24.80;99.90
21039;DHT22;10678;51.002;4.786;2023-08-17T14:43:13;24.60;99.90
21039;DHT22;10678;51.002;4.786;2023-08-17T14:45:43;24.50;99.90
21039;DHT22;10678;51.002;4.786;2023-08-17T14:48:09;24.50;99.90
21039;DHT22;10678;51.002;4.786;2023-08-17T14:50:38;24.70;99.90
21039;DHT22;10678;51.002;4.786;2023-08-17T14:53:04;24.70;99.90
21039;DHT22;10678;51.002;4.786;2023-08-17T14:55:33;24.80;99.90
21039;DHT22;10678;51.002;4.786;2023-08-17T14:57:59;24.70;99.90
21039;DHT22;10678;51.002;4.786;2023-08-17T15:00:25;24.70;99.90
21039;DHT22;10678;51.002;4.786;2023-08-17T15:02:58;24.70;99.90
21039;DHT22;10678;51.002;4.786;2023-08-17T15:05:24;24.60;99.90
21039;DHT22;10678;51.002;4.786;2023-08-17T15:07:50;24.60;99.90
21039;DHT22;10678;51.002;4.786;2023-08-17T15:10:16;24.70;99.90
21039;DHT22;10678;51.002;4.786;2023-08-17T15:12:41;24.50;99.90
21039;DHT22;10678;51.002;4.786;2023-08-17T15:15:08;24.40;99.90
21039;DHT22;10678;51.002;4.786;2023-08-17T15:17:33;24.30;99.90
21039;DHT22;10678;51.002;4.786;2023-08-17T15:20:00;24.10;99.90
21039;DHT22;10678;51.002;4.786;2023-08-17T15:22:26;24.10;99.90
21039;DHT22;10678;51.002;4.786;2023-08-17T15:24:52;24.00;99.90
21039;DHT22;10678;51.002;4.786;2023-08-17T15:27:18;24.10;99.90
21039;DHT22;10678;51.002;4.786;2023-08-17T15:29:43;24.00;99.90
21039;DHT22;10678;51.002;4.786;2023-08-17T15:32:09;24.10;99.90
21039;DHT22;10678;51.002;4.786;2023-08-17T15:34:35;24.20;99.90
21039;DHT22;10678;51.002;4.786;2023-08-17T15:37:01;24.00;99.90
21039;DHT22;10678;51.002;4.786;2023-08-17T15:39:26;24.20;99.90
21039;DHT22;10678;51.002;4.786;2023-08-17T15:41:52;24.20;99.90